sensor_id;sensor_type;location;lat;lon;timestamp;pressure;altitude;pressure_sealevel;temperature
72236;BMP280;60146;52.498;13.462;2023-05-07T00:01:25;101970.50;;;11.54
72236;BMP280;60146;52.498;13.462;2023-05-07T00:03:51;101967.13;;;11.58
72236;BMP280;60146;52.498;13.462;2023-05-07T00:06:16;101957.41;;;11.59
72236;BMP280;60146;52.498;13.462;2023-05-07T00:08:42;101964.16;;;11.50
72236;BMP280;60146;52.498;13.462;2023-05-07T00:11:07;101971.50;;;11.48
72236;BMP280;60146;52.498;13.462;2023-05-07T00:13:33;101965.25;;;11.54
72236;BMP280;60146;52.498;13.462;2023-05-07T00:16:04;101963.94;;;11.57
72236;BMP280;60146;52.498;13.462;2023-05-07T00:18:29;101961.88;;;11.58
72236;BMP280;60146;52.498;13.462;2023-05-07T00:20:55;101961.56;;;11.55
72236;BMP280;60146;52.498;13.462;2023-05-07T00:23:21;101963.63;;;11.48
72236;BMP280;60146;52.498;13.462;2023-05-07T00:25:47;101961.78;;;11.44
72236;BMP280;60146;52.498;13.462;2023-05-07T00:28:12;101963.38;;;11.50
72236;BMP280;60146;52.498;13.462;2023-05-07T00:30:37;101956.84;;;11.52
72236;BMP280;60146;52.498;13.462;2023-05-07T00:33:03;101959.97;;;11.49
72236;BMP280;60146;52.498;13.462;2023-05-07T00:35:29;101950.78;;;11.52
72236;BMP280;60146;52.498;13.462;2023-05-07T00:37:54;101946.34;;;11.52
72236;BMP280;60146;52.498;13.462;2023-05-07T00:40:20;101954.69;;;11.44
72236;BMP280;60146;52.498;13.462;2023-05-07T00:42:45;101955.13;;;11.32
72236;BMP280;60146;52.498;13.462;2023-05-07T00:45:13;101966.13;;;11.29
72236;BMP280;60146;52.498;13.462;2023-05-07T00:47:39;101967.16;;;11.28
72236;BMP280;60146;52.498;13.462;2023-05-07T00:50:05;101954.63;;;11.35
72236;BMP280;60146;52.498;13.462;2023-05-07T00:52:30;101961.41;;;11.31
72236;BMP280;60146;52.498;13.462;2023-05-07T00:54:56;101963.81;;;11.37
72236;BMP280;60146;52.498;13.462;2023-05-07T00:57:23;101959.88;;;11.35
72236;BMP280;60146;52.498;13.462;2023-05-07T00:59:50;101952.75;;;11.30
72236;BMP280;60146;52.498;13.462;2023-05-07T01:02:16;101959.28;;;11.28
72236;BMP280;60146;52.498;13.462;2023-05-07T01:04:41;101959.06;;;11.34
72236;BMP280;60146;52.498;13.462;2023-05-07T01:07:07;101954.91;;;11.38
72236;BMP280;60146;52.498;13.462;2023-05-07T01:09:33;101964.63;;;11.37
72236;BMP280;60146;52.498;13.462;2023-05-07T01:12:00;101959.13;;;11.39
72236;BMP280;60146;52.498;13.462;2023-05-07T01:14:26;101957.78;;;11.37
72236;BMP280;60146;52.498;13.462;2023-05-07T01:16:53;101957.78;;;11.37
72236;BMP280;60146;52.498;13.462;2023-05-07T01:19:19;101966.19;;;11.38
72236;BMP280;60146;52.498;13.462;2023-05-07T01:21:46;101961.75;;;11.39
72236;BMP280;60146;52.498;13.462;2023-05-07T01:24:12;101960.41;;;11.37
72236;BMP280;60146;52.498;13.462;2023-05-07T01:26:39;101961.91;;;11.33
72236;BMP280;60146;52.498;13.462;2023-05-07T01:29:05;101964.06;;;11.36
72236;BMP280;60146;52.498;13.462;2023-05-07T01:31:32;101965.66;;;11.37
72236;BMP280;60146;52.498;13.462;2023-05-07T01:33:59;101969.56;;;11.34
72236;BMP280;60146;52.498;13.462;2023-05-07T01:36:25;101970.91;;;11.37
72236;BMP280;60146;52.498;13.462;2023-05-07T01:38:52;101969.88;;;11.37
72236;BMP280;60146;52.498;13.462;2023-05-07T01:41:19;101961.44;;;11.36
72236;BMP280;60146;52.498;13.462;2023-05-07T01:43:45;101975.16;;;11.42
72236;BMP280;60146;52.498;13.462;2023-05-07T01:46:12;101965.66;;;11.41
72236;BMP280;60146;52.498;13.462;2023-05-07T01:48:38;101970.13;;;11.41
72236;BMP280;60146;52.498;13.462;2023-05-07T01:51:04;101963.63;;;11.43
72236;BMP280;60146;52.498;13.462;2023-05-07T01:53:35;101967.25;;;11.37
72236;BMP280;60146;52.498;13.462;2023-05-07T01:56:01;101972.25;;;11.39
72236;BMP280;60146;52.498;13.462;2023-05-07T01:58:26;101965.66;;;11.41
72236;BMP280;60146;52.498;13.462;2023-05-07T02:00:51;101974.88;;;11.39
72236;BMP280;60146;52.498;13.462;2023-05-07T02:03:17;101977.50;;;11.39
72236;BMP280;60146;52.498;13.462;2023-05-07T02:05:42;101972.25;;;11.39
72236;BMP280;60146;52.498;13.462;2023-05-07T02:08:07;101971.72;;;11.42
72236;BMP280;60146;52.498;13.462;2023-05-07T02:10:33;101979.81;;;11.36
72236;BMP280;60146;52.498;13.462;2023-05-07T02:12:58;101975.13;;;11.37
72236;BMP280;60146;52.498;13.462;2023-05-07T02:15:24;101972.25;;;11.39
72236;BMP280;60146;52.498;13.462;2023-05-07T02:18:06;101978.88;;;11.46
72236;BMP280;60146;52.498;13.462;2023-05-07T02:20:32;101980.91;;;11.39
72236;BMP280;60146;52.498;13.462;2023-05-07T02:22:57;101983.53;;;11.39
72236;BMP280;60146;52.498;13.462;2023-05-07T02:25:23;101979.81;;;11.36
72236;BMP280;60146;52.498;13.462;2023-05-07T02:27:48;101988.16;;;11.33
72236;BMP280;60146;52.498;13.462;2023-05-07T02:30:14;101976.13;;;11.32
72236;BMP280;60146;52.498;13.462;2023-05-07T02:32:40;101978.25;;;11.35
72236;BMP280;60146;52.498;13.462;2023-05-07T02:35:05;101991.38;;;11.35
72236;BMP280;60146;52.498;13.462;2023-05-07T02:37:31;101980.56;;;11.31
72236;BMP280;60146;52.498;13.462;2023-05-07T02:39:56;101987.09;;;11.29
72236;BMP280;60146;52.498;13.462;2023-05-07T02:42:21;101986.91;;;11.35
72236;BMP280;60146;52.498;13.462;2023-05-07T02:44:47;101984.03;;;11.37
72236;BMP280;60146;52.498;13.462;2023-05-07T02:47:14;101986.91;;;11.35
72236;BMP280;60146;52.498;13.462;2023-05-07T02:49:39;101984.28;;;11.40
72236;BMP280;60146;52.498;13.462;2023-05-07T02:52:04;101989.28;;;11.41
72236;BMP280;60146;52.498;13.462;2023-05-07T02:54:30;101988.00;;;11.39
72236;BMP280;60146;52.498;13.462;2023-05-07T02:56:55;101996.84;;;11.33
72236;BMP280;60146;52.498;13.462;2023-05-07T02:59:21;101995.81;;;11.34
72236;BMP280;60146;52.498;13.462;2023-05-07T03:01:46;101999.53;;;11.38
72236;BMP280;60146;52.498;13.462;2023-05-07T03:04:13;102008.00;;;11.45
72236;BMP280;60146;52.498;13.462;2023-05-07T03:06:38;101995.91;;;11.44
72236;BMP280;60146;52.498;13.462;2023-05-07T03:09:03;102003.44;;;11.36
72236;BMP280;60146;52.498;13.462;2023-05-07T03:11:29;102006.63;;;11.37
72236;BMP280;60146;52.498;13.462;2023-05-07T03:13:54;102007.16;;;11.39
72236;BMP280;60146;52.498;13.462;2023-05-07T03:16:20;102005.56;;;11.38
72236;BMP280;60146;52.498;13.462;2023-05-07T03:18:45;102003.75;;;11.39
72236;BMP280;60146;52.498;13.462;2023-05-07T03:21:11;102004.53;;;11.39
72236;BMP280;60146;52.498;13.462;2023-05-07T03:23:36;102007.91;;;11.35
72236;BMP280;60146;52.498;13.462;2023-05-07T03:26:01;102006.53;;;11.28
72236;BMP280;60146;52.498;13.462;2023-05-07T03:28:27;102010.78;;;11.34
72236;BMP280;60146;52.498;13.462;2023-05-07T03:30:52;102014.94;;;11.25
72236;BMP280;60146;52.498;13.462;2023-05-07T03:33:17;102024.34;;;11.26
72236;BMP280;60146;52.498;13.462;2023-05-07T03:35:43;102029.59;;;11.26
72236;BMP280;60146;52.498;13.462;2023-05-07T03:38:08;102019.09;;;11.26
72236;BMP280;60146;52.498;13.462;2023-05-07T03:40:34;102020.97;;;11.25
72236;BMP280;60146;52.498;13.462;2023-05-07T03:43:00;102023.84;;;11.29
72236;BMP280;60146;52.498;13.462;2023-05-07T03:45:25;102025.41;;;11.25
72236;BMP280;60146;52.498;13.462;2023-05-07T03:47:50;102016.75;;;11.24
72236;BMP280;60146;52.498;13.462;2023-05-07T03:50:16;102029.09;;;11.24
72236;BMP280;60146;52.498;13.462;2023-05-07T03:52:41;102038.03;;;11.33
72236;BMP280;60146;52.498;13.462;2023-05-07T03:55:07;102039.84;;;11.27
72236;BMP280;60146;52.498;13.462;2023-05-07T03:57:32;102035.13;;;11.29
72236;BMP280;60146;52.498;13.462;2023-05-07T03:59:58;102038.81;;;11.28
72236;BMP280;60146;52.498;13.462;2023-05-07T04:02:23;102032.50;;;11.24
72236;BMP280;60146;52.498;13.462;2023-05-07T04:04:49;102032.22;;;11.26
72236;BMP280;60146;52.498;13.462;2023-05-07T04:07:14;102040.09;;;11.26
72236;BMP280;60146;52.498;13.462;2023-05-07T04:09:40;102028.56;;;11.27
72236;BMP280;60146;52.498;13.462;2023-05-07T04:12:05;102041.72;;;11.32
72236;BMP280;60146;52.498;13.462;2023-05-07T04:14:31;102043.56;;;11.31
72236;BMP280;60146;52.498;13.462;2023-05-07T04:16:58;102039.34;;;11.30
72236;BMP280;60146;52.498;13.462;2023-05-07T04:19:24;102046.47;;;11.35
72236;BMP280;60146;52.498;13.462;2023-05-07T04:21:49;102039.69;;;11.38
72236;BMP280;60146;52.498;13.462;2023-05-07T04:24:14;102043.84;;;11.35
72236;BMP280;60146;52.498;13.462;2023-05-07T04:26:40;102043.38;;;11.37
72236;BMP280;60146;52.498;13.462;2023-05-07T04:29:05;102043.84;;;11.35
72236;BMP280;60146;52.498;13.462;2023-05-07T04:31:31;102043.41;;;11.42
72236;BMP280;60146;52.498;13.462;2023-05-07T04:33:56;102047.03;;;11.37
72236;BMP280;60146;52.498;13.462;2023-05-07T04:36:22;102048.88;;;11.41
72236;BMP280;60146;52.498;13.462;2023-05-07T04:38:47;102035.03;;;11.45
72236;BMP280;60146;52.498;13.462;2023-05-07T04:41:13;102045.31;;;11.52
72236;BMP280;60146;52.498;13.462;2023-05-07T04:43:38;102038.75;;;11.54
72236;BMP280;60146;52.498;13.462;2023-05-07T04:46:03;102049.03;;;11.60
72236;BMP280;60146;52.498;13.462;2023-05-07T04:48:29;102052.97;;;11.58
72236;BMP280;60146;52.498;13.462;2023-05-07T04:50:55;102050.84;;;11.55
72236;BMP280;60146;52.498;13.462;2023-05-07T04:53:20;102053.25;;;11.61
72236;BMP280;60146;52.498;13.462;2023-05-07T04:55:46;102055.97;;;11.71
72236;BMP280;60146;52.498;13.462;2023-05-07T04:58:12;102059.94;;;11.74
72236;BMP280;60146;52.498;13.462;2023-05-07T05:00:38;102060.19;;;11.77
72236;BMP280;60146;52.498;13.462;2023-05-07T05:03:04;102062.13;;;11.86
72236;BMP280;60146;52.498;13.462;2023-05-07T05:05:30;102067.97;;;11.98
72236;BMP280;60146;52.498;13.462;2023-05-07T05:07:55;102061.97;;;12.07
72236;BMP280;60146;52.498;13.462;2023-05-07T05:10:21;102063.06;;;12.11
72236;BMP280;60146;52.498;13.462;2023-05-07T05:12:47;102075.94;;;12.13
72236;BMP280;60146;52.498;13.462;2023-05-07T05:15:12;102073.56;;;12.11
72236;BMP280;60146;52.498;13.462;2023-05-07T05:17:38;102073.81;;;12.15
72236;BMP280;60146;52.498;13.462;2023-05-07T05:20:04;102077.03;;;12.21
72236;BMP280;60146;52.498;13.462;2023-05-07T05:22:31;102074.41;;;12.21
72236;BMP280;60146;52.498;13.462;2023-05-07T05:24:56;102070.00;;;12.32
72236;BMP280;60146;52.498;13.462;2023-05-07T05:27:22;102085.00;;;12.41
72236;BMP280;60146;52.498;13.462;2023-05-07T05:29:47;102077.09;;;12.36
72236;BMP280;60146;52.498;13.462;2023-05-07T05:32:12;102076.06;;;12.42
72236;BMP280;60146;52.498;13.462;2023-05-07T05:34:38;102076.31;;;12.36
72236;BMP280;60146;52.498;13.462;2023-05-07T05:37:03;102073.94;;;12.34
72236;BMP280;60146;52.498;13.462;2023-05-07T05:39:30;102086.56;;;12.32
72236;BMP280;60146;52.498;13.462;2023-05-07T05:42:04;102080.28;;;12.43
72236;BMP280;60146;52.498;13.462;2023-05-07T05:44:42;102069.47;;;12.35
72236;BMP280;60146;52.498;13.462;2023-05-07T05:47:11;102072.41;;;12.38
72236;BMP280;60146;52.498;13.462;2023-05-07T05:49:37;102078.44;;;12.34
72236;BMP280;60146;52.498;13.462;2023-05-07T05:52:03;102082.88;;;12.33
72236;BMP280;60146;52.498;13.462;2023-05-07T05:54:28;102078.13;;;12.35
72236;BMP280;60146;52.498;13.462;2023-05-07T05:59:56;102085.59;;;12.53
72236;BMP280;60146;52.498;13.462;2023-05-07T06:02:22;102087.03;;;12.19
72236;BMP280;60146;52.498;13.462;2023-05-07T06:04:47;102087.13;;;12.39
72236;BMP280;60146;52.498;13.462;2023-05-07T06:07:13;102091.44;;;12.59
72236;BMP280;60146;52.498;13.462;2023-05-07T06:09:38;102103.34;;;12.86
72236;BMP280;60146;52.498;13.462;2023-05-07T06:12:03;102104.19;;;12.97
72236;BMP280;60146;52.498;13.462;2023-05-07T06:14:29;102088.13;;;13.08
72236;BMP280;60146;52.498;13.462;2023-05-07T06:16:54;102090.00;;;13.12
72236;BMP280;60146;52.498;13.462;2023-05-07T06:19:20;102094.94;;;12.99
72236;BMP280;60146;52.498;13.462;2023-05-07T06:21:48;102103.63;;;12.90
72236;BMP280;60146;52.498;13.462;2023-05-07T06:24:14;102099.91;;;12.91
72236;BMP280;60146;52.498;13.462;2023-05-07T06:26:39;102101.53;;;12.97
72236;BMP280;60146;52.498;13.462;2023-05-07T06:29:05;102101.31;;;13.03
72236;BMP280;60146;52.498;13.462;2023-05-07T06:31:30;102109.16;;;12.88
72236;BMP280;60146;52.498;13.462;2023-05-07T06:33:57;102108.94;;;13.09
72236;BMP280;60146;52.498;13.462;2023-05-07T06:36:22;102104.44;;;13.05
72236;BMP280;60146;52.498;13.462;2023-05-07T06:42:02;102119.22;;;13.20
72236;BMP280;60146;52.498;13.462;2023-05-07T06:45:03;102115.75;;;13.10
72236;BMP280;60146;52.498;13.462;2023-05-07T06:51:18;102114.22;;;13.53
72236;BMP280;60146;52.498;13.462;2023-05-07T06:53:58;102131.63;;;13.54
72236;BMP280;60146;52.498;13.462;2023-05-07T06:56:58;102132.66;;;13.58
72236;BMP280;60146;52.498;13.462;2023-05-07T07:18:14;102120.72;;;14.81
72236;BMP280;60146;52.498;13.462;2023-05-07T07:20:40;102121.13;;;14.97
72236;BMP280;60146;52.498;13.462;2023-05-07T07:23:09;102131.19;;;14.95
72236;BMP280;60146;52.498;13.462;2023-05-07T07:29:31;102131.88;;;14.68
72236;BMP280;60146;52.498;13.462;2023-05-07T07:32:03;102131.75;;;14.88
72236;BMP280;60146;52.498;13.462;2023-05-07T07:34:51;102125.94;;;14.91
72236;BMP280;60146;52.498;13.462;2023-05-07T07:51:05;102126.28;;;15.17
72236;BMP280;60146;52.498;13.462;2023-05-07T07:53:30;102118.84;;;15.19
72236;BMP280;60146;52.498;13.462;2023-05-07T07:55:59;102128.41;;;15.20
72236;BMP280;60146;52.498;13.462;2023-05-07T07:58:30;102110.59;;;15.30
72236;BMP280;60146;52.498;13.462;2023-05-07T08:01:00;102119.16;;;15.50
72236;BMP280;60146;52.498;13.462;2023-05-07T08:03:26;102113.19;;;15.68
72236;BMP280;60146;52.498;13.462;2023-05-07T08:05:51;102117.34;;;15.73
72236;BMP280;60146;52.498;13.462;2023-05-07T08:08:22;102120.91;;;15.87
72236;BMP280;60146;52.498;13.462;2023-05-07T08:11:20;102122.31;;;16.03
72236;BMP280;60146;52.498;13.462;2023-05-07T08:14:07;102114.94;;;16.05
72236;BMP280;60146;52.498;13.462;2023-05-07T08:16:38;102114.50;;;16.16
72236;BMP280;60146;52.498;13.462;2023-05-07T08:19:09;102115.41;;;16.30
72236;BMP280;60146;52.498;13.462;2023-05-07T08:21:45;102108.41;;;16.56
72236;BMP280;60146;52.498;13.462;2023-05-07T08:24:21;102117.72;;;16.31
72236;BMP280;60146;52.498;13.462;2023-05-07T08:27:05;102102.31;;;16.56
72236;BMP280;60146;52.498;13.462;2023-05-07T08:29:42;102105.38;;;16.45
72236;BMP280;60146;52.498;13.462;2023-05-07T08:32:38;102115.44;;;17.33
72236;BMP280;60146;52.498;13.462;2023-05-07T08:35:23;102106.44;;;18.26
72236;BMP280;60146;52.498;13.462;2023-05-07T08:37:52;102106.28;;;18.78
72236;BMP280;60146;52.498;13.462;2023-05-07T08:40:18;102107.38;;;18.77
72236;BMP280;60146;52.498;13.462;2023-05-07T08:42:48;102116.34;;;19.11
72236;BMP280;60146;52.498;13.462;2023-05-07T08:45:17;102114.69;;;19.45
72236;BMP280;60146;52.498;13.462;2023-05-07T08:47:46;102105.94;;;19.90
72236;BMP280;60146;52.498;13.462;2023-05-07T08:50:18;102111.97;;;20.54
72236;BMP280;60146;52.498;13.462;2023-05-07T08:52:45;102115.63;;;21.19
72236;BMP280;60146;52.498;13.462;2023-05-07T08:55:17;102110.06;;;21.69
72236;BMP280;60146;52.498;13.462;2023-05-07T08:58:08;102111.41;;;22.43
72236;BMP280;60146;52.498;13.462;2023-05-07T09:00:36;102111.63;;;23.36
72236;BMP280;60146;52.498;13.462;2023-05-07T09:03:05;102114.41;;;23.28
72236;BMP280;60146;52.498;13.462;2023-05-07T09:05:30;102114.31;;;23.48
72236;BMP280;60146;52.498;13.462;2023-05-07T09:07:59;102116.16;;;22.57
72236;BMP280;60146;52.498;13.462;2023-05-07T09:10:25;102116.19;;;21.69
72236;BMP280;60146;52.498;13.462;2023-05-07T09:12:51;102117.47;;;21.27
72236;BMP280;60146;52.498;13.462;2023-05-07T09:15:17;102121.38;;;22.14
72236;BMP280;60146;52.498;13.462;2023-05-07T09:17:43;102136.31;;;22.15
72236;BMP280;60146;52.498;13.462;2023-05-07T09:20:09;102137.78;;;21.48
72236;BMP280;60146;52.498;13.462;2023-05-07T09:22:38;102124.84;;;21.21
72236;BMP280;60146;52.498;13.462;2023-05-07T09:25:05;102131.16;;;21.62
72236;BMP280;60146;52.498;13.462;2023-05-07T09:27:31;102128.75;;;21.32
72236;BMP280;60146;52.498;13.462;2023-05-07T09:29:56;102129.53;;;21.41
72236;BMP280;60146;52.498;13.462;2023-05-07T09:32:21;102121.91;;;21.23
72236;BMP280;60146;52.498;13.462;2023-05-07T09:34:47;102119.75;;;20.92
72236;BMP280;60146;52.498;13.462;2023-05-07T09:37:13;102130.59;;;20.21
72236;BMP280;60146;52.498;13.462;2023-05-07T09:42:05;102121.63;;;20.83
72236;BMP280;60146;52.498;13.462;2023-05-07T09:44:32;102130.19;;;21.21
72236;BMP280;60146;52.498;13.462;2023-05-07T09:46:59;102128.50;;;21.09
72236;BMP280;60146;52.498;13.462;2023-05-07T09:49:28;102119.47;;;20.60
72236;BMP280;60146;52.498;13.462;2023-05-07T09:51:55;102127.00;;;20.66
72236;BMP280;60146;52.498;13.462;2023-05-07T09:54:22;102123.69;;;20.28
72236;BMP280;60146;52.498;13.462;2023-05-07T09:56:51;102133.91;;;20.84
72236;BMP280;60146;52.498;13.462;2023-05-07T09:59:17;102143.56;;;21.58
72236;BMP280;60146;52.498;13.462;2023-05-07T10:01:44;102136.88;;;21.44
72236;BMP280;60146;52.498;13.462;2023-05-07T10:04:10;102135.78;;;20.59
72236;BMP280;60146;52.498;13.462;2023-05-07T10:06:36;102141.69;;;20.06
72236;BMP280;60146;52.498;13.462;2023-05-07T10:09:03;102125.44;;;20.49
72236;BMP280;60146;52.498;13.462;2023-05-07T10:11:32;102125.00;;;20.39
72236;BMP280;60146;52.498;13.462;2023-05-07T10:13:58;102122.75;;;21.43
72236;BMP280;60146;52.498;13.462;2023-05-07T10:16:25;102137.72;;;23.62
72236;BMP280;60146;52.498;13.462;2023-05-07T10:18:50;102124.81;;;22.54
72236;BMP280;60146;52.498;13.462;2023-05-07T10:21:21;102134.22;;;21.36
72236;BMP280;60146;52.498;13.462;2023-05-07T10:24:03;102128.44;;;22.70
72236;BMP280;60146;52.498;13.462;2023-05-07T10:26:32;102116.03;;;24.29
72236;BMP280;60146;52.498;13.462;2023-05-07T10:29:02;102128.75;;;23.93
72236;BMP280;60146;52.498;13.462;2023-05-07T10:34:40;102125.25;;;22.76
72236;BMP280;60146;52.498;13.462;2023-05-07T10:37:07;102123.34;;;22.77
72236;BMP280;60146;52.498;13.462;2023-05-07T10:39:34;102125.44;;;22.40
72236;BMP280;60146;52.498;13.462;2023-05-07T10:42:13;102125.88;;;22.02
72236;BMP280;60146;52.498;13.462;2023-05-07T10:44:38;102122.63;;;21.96
72236;BMP280;60146;52.498;13.462;2023-05-07T10:49:30;102116.50;;;25.03
72236;BMP280;60146;52.498;13.462;2023-05-07T10:52:12;102117.56;;;24.99
72236;BMP280;60146;52.498;13.462;2023-05-07T10:54:44;102125.75;;;23.95
72236;BMP280;60146;52.498;13.462;2023-05-07T10:59:53;102129.06;;;23.30
72236;BMP280;60146;52.498;13.462;2023-05-07T11:02:19;102132.25;;;22.81
72236;BMP280;60146;52.498;13.462;2023-05-07T11:04:45;102126.84;;;22.26
72236;BMP280;60146;52.498;13.462;2023-05-07T11:07:27;102124.06;;;22.14
72236;BMP280;60146;52.498;13.462;2023-05-07T11:15:13;102120.84;;;21.07
72236;BMP280;60146;52.498;13.462;2023-05-07T11:17:57;102121.22;;;20.56
72236;BMP280;60146;52.498;13.462;2023-05-07T11:20:45;102120.97;;;19.87
72236;BMP280;60146;52.498;13.462;2023-05-07T11:28:31;102115.53;;;21.44
72236;BMP280;60146;52.498;13.462;2023-05-07T11:30:57;102109.78;;;23.75
72236;BMP280;60146;52.498;13.462;2023-05-07T11:33:23;102108.25;;;24.96
72236;BMP280;60146;52.498;13.462;2023-05-07T11:35:51;102107.19;;;25.79
72236;BMP280;60146;52.498;13.462;2023-05-07T11:38:18;102094.06;;;25.78
72236;BMP280;60146;52.498;13.462;2023-05-07T11:40:56;102095.03;;;25.03
72236;BMP280;60146;52.498;13.462;2023-05-07T11:43:22;102093.19;;;24.08
72236;BMP280;60146;52.498;13.462;2023-05-07T11:45:49;102097.34;;;24.74
72236;BMP280;60146;52.498;13.462;2023-05-07T11:48:16;102093.19;;;25.22
72236;BMP280;60146;52.498;13.462;2023-05-07T11:50:51;102087.34;;;24.45
72236;BMP280;60146;52.498;13.462;2023-05-07T11:53:18;102098.00;;;23.41
72236;BMP280;60146;52.498;13.462;2023-05-07T11:55:44;102110.19;;;22.72
72236;BMP280;60146;52.498;13.462;2023-05-07T11:58:12;102117.03;;;21.90
72236;BMP280;60146;52.498;13.462;2023-05-07T12:00:37;102110.69;;;22.14
72236;BMP280;60146;52.498;13.462;2023-05-07T12:03:06;102098.56;;;23.00
72236;BMP280;60146;52.498;13.462;2023-05-07T12:05:31;102094.66;;;24.44
72236;BMP280;60146;52.498;13.462;2023-05-07T12:07:59;102098.50;;;24.73
72236;BMP280;60146;52.498;13.462;2023-05-07T12:10:25;102086.09;;;26.58
72236;BMP280;60146;52.498;13.462;2023-05-07T12:12:51;102084.28;;;28.02
72236;BMP280;60146;52.498;13.462;2023-05-07T12:15:17;102093.25;;;27.78
72236;BMP280;60146;52.498;13.462;2023-05-07T12:17:42;102092.97;;;29.19
72236;BMP280;60146;52.498;13.462;2023-05-07T12:20:09;102090.13;;;28.92
72236;BMP280;60146;52.498;13.462;2023-05-07T12:22:35;102094.09;;;30.15
72236;BMP280;60146;52.498;13.462;2023-05-07T12:25:01;102094.75;;;29.61
72236;BMP280;60146;52.498;13.462;2023-05-07T12:27:28;102093.28;;;28.13
72236;BMP280;60146;52.498;13.462;2023-05-07T12:29:54;102087.72;;;27.13
72236;BMP280;60146;52.498;13.462;2023-05-07T12:32:20;102093.03;;;26.01
72236;BMP280;60146;52.498;13.462;2023-05-07T12:34:49;102096.72;;;26.74
72236;BMP280;60146;52.498;13.462;2023-05-07T12:37:15;102097.69;;;24.88
72236;BMP280;60146;52.498;13.462;2023-05-07T12:40:03;102096.00;;;26.14
72236;BMP280;60146;52.498;13.462;2023-05-07T12:42:34;102097.94;;;25.28
72236;BMP280;60146;52.498;13.462;2023-05-07T12:45:07;102108.69;;;25.28
72236;BMP280;60146;52.498;13.462;2023-05-07T12:47:32;102100.50;;;25.55
72236;BMP280;60146;52.498;13.462;2023-05-07T12:49:59;102098.09;;;25.69
72236;BMP280;60146;52.498;13.462;2023-05-07T12:52:24;102093.75;;;27.04
72236;BMP280;60146;52.498;13.462;2023-05-07T12:54:50;102088.03;;;26.40
72236;BMP280;60146;52.498;13.462;2023-05-07T12:57:19;102089.91;;;25.28
72236;BMP280;60146;52.498;13.462;2023-05-07T12:59:44;102096.13;;;24.87
72236;BMP280;60146;52.498;13.462;2023-05-07T13:02:10;102095.34;;;25.32
72236;BMP280;60146;52.498;13.462;2023-05-07T13:04:35;102090.34;;;26.01
72236;BMP280;60146;52.498;13.462;2023-05-07T13:07:01;102100.38;;;25.67
72236;BMP280;60146;52.498;13.462;2023-05-07T13:09:27;102100.47;;;25.06
72236;BMP280;60146;52.498;13.462;2023-05-07T13:11:54;102099.72;;;25.21
72236;BMP280;60146;52.498;13.462;2023-05-07T13:14:19;102100.31;;;26.00
72236;BMP280;60146;52.498;13.462;2023-05-07T13:16:46;102095.63;;;27.25
72236;BMP280;60146;52.498;13.462;2023-05-07T13:19:12;102094.63;;;27.62
72236;BMP280;60146;52.498;13.462;2023-05-07T13:21:37;102088.13;;;26.24
72236;BMP280;60146;52.498;13.462;2023-05-07T13:24:02;102094.84;;;26.34
72236;BMP280;60146;52.498;13.462;2023-05-07T13:26:30;102102.09;;;27.46
72236;BMP280;60146;52.498;13.462;2023-05-07T13:28:56;102089.00;;;28.09
72236;BMP280;60146;52.498;13.462;2023-05-07T13:31:21;102094.44;;;27.80
72236;BMP280;60146;52.498;13.462;2023-05-07T13:33:47;102093.84;;;27.93
72236;BMP280;60146;52.498;13.462;2023-05-07T13:36:12;102090.53;;;27.45
72236;BMP280;60146;52.498;13.462;2023-05-07T13:38:39;102086.22;;;27.70
72236;BMP280;60146;52.498;13.462;2023-05-07T13:41:05;102099.31;;;26.67
72236;BMP280;60146;52.498;13.462;2023-05-07T13:43:30;102087.63;;;26.81
72236;BMP280;60146;52.498;13.462;2023-05-07T13:45:56;102092.44;;;27.74
72236;BMP280;60146;52.498;13.462;2023-05-07T13:48:22;102089.09;;;28.58
72236;BMP280;60146;52.498;13.462;2023-05-07T13:50:47;102088.69;;;29.05
72236;BMP280;60146;52.498;13.462;2023-05-07T13:53:13;102086.41;;;29.17
72236;BMP280;60146;52.498;13.462;2023-05-07T13:55:40;102089.72;;;28.45
72236;BMP280;60146;52.498;13.462;2023-05-07T13:58:06;102082.41;;;28.94
72236;BMP280;60146;52.498;13.462;2023-05-07T14:00:31;102097.41;;;27.14
72236;BMP280;60146;52.498;13.462;2023-05-07T14:02:56;102095.31;;;25.80
72236;BMP280;60146;52.498;13.462;2023-05-07T14:05:23;102097.88;;;24.23
72236;BMP280;60146;52.498;13.462;2023-05-07T14:07:52;102090.44;;;23.43
72236;BMP280;60146;52.498;13.462;2023-05-07T14:10:18;102086.38;;;22.79
72236;BMP280;60146;52.498;13.462;2023-05-07T14:12:44;102086.13;;;22.20
72236;BMP280;60146;52.498;13.462;2023-05-07T14:15:10;102084.03;;;22.46
72236;BMP280;60146;52.498;13.462;2023-05-07T14:17:36;102080.28;;;22.58
72236;BMP280;60146;52.498;13.462;2023-05-07T14:20:01;102085.97;;;22.25
72236;BMP280;60146;52.498;13.462;2023-05-07T14:22:27;102091.28;;;21.85
72236;BMP280;60146;52.498;13.462;2023-05-07T14:24:52;102092.66;;;21.63
72236;BMP280;60146;52.498;13.462;2023-05-07T14:27:18;102083.72;;;21.59
72236;BMP280;60146;52.498;13.462;2023-05-07T14:29:43;102086.88;;;21.89
72236;BMP280;60146;52.498;13.462;2023-05-07T14:32:10;102081.00;;;21.67
72236;BMP280;60146;52.498;13.462;2023-05-07T14:34:35;102084.72;;;21.46
72236;BMP280;60146;52.498;13.462;2023-05-07T14:37:01;102085.00;;;21.25
72236;BMP280;60146;52.498;13.462;2023-05-07T14:39:26;102091.50;;;20.99
72236;BMP280;60146;52.498;13.462;2023-05-07T14:41:52;102084.69;;;20.57
72236;BMP280;60146;52.498;13.462;2023-05-07T14:44:20;102090.66;;;20.37
72236;BMP280;60146;52.498;13.462;2023-05-07T14:46:45;102090.59;;;20.04
72236;BMP280;60146;52.498;13.462;2023-05-07T14:49:10;102093.78;;;20.39
72236;BMP280;60146;52.498;13.462;2023-05-07T14:51:45;102089.38;;;20.60
72236;BMP280;60146;52.498;13.462;2023-05-07T14:54:10;102090.00;;;20.32